sensor_id;sensor_type;location;lat;lon;timestamp;pressure;altitude;pressure_sealevel;temperature;humidity
60019;BME280;45870;42.528;26.740;2023-01-26T00:01:14;100589.44;;;8.18;48.66
60019;BME280;45870;42.528;26.740;2023-01-26T00:03:40;100581.81;;;8.22;48.12
60019;BME280;45870;42.528;26.740;2023-01-26T00:06:08;100585.56;;;8.27;48.11
60019;BME280;45870;42.528;26.740;2023-01-26T00:08:38;100570.97;;;8.36;48.07
60019;BME280;45870;42.528;26.740;2023-01-26T00:11:05;100577.28;;;7.94;48.96
60019;BME280;45870;42.528;26.740;2023-01-26T00:13:32;100538.84;;;7.02;50.81
60019;BME280;45870;42.528;26.740;2023-01-26T00:15:58;100569.06;;;7.32;50.66
60019;BME280;45870;42.528;26.740;2023-01-26T00:18:24;100565.38;;;7.82;49.32
60019;BME280;45870;42.528;26.740;2023-01-26T00:20:59;100558.66;;;7.93;49.40
60019;BME280;45870;42.528;26.740;2023-01-26T00:23:26;100561.69;;;7.83;49.38
60019;BME280;45870;42.528;26.740;2023-01-26T00:25:52;100561.28;;;8.48;47.71
60019;BME280;45870;42.528;26.740;2023-01-26T00:28:18;100559.59;;;8.41;47.79
60019;BME280;45870;42.528;26.740;2023-01-26T00:30:44;100542.78;;;8.73;47.12
60019;BME280;45870;42.528;26.740;2023-01-26T00:33:10;100535.63;;;8.93;46.35
60019;BME280;45870;42.528;26.740;2023-01-26T00:35:36;100565.69;;;9.17;45.67
60019;BME280;45870;42.528;26.740;2023-01-26T00:38:02;100555.91;;;8.48;47.25
60019;BME280;45870;42.528;26.740;2023-01-26T00:40:27;100560.03;;;8.92;46.28
60019;BME280;45870;42.528;26.740;2023-01-26T00:42:53;100554.81;;;8.77;46.63
60019;BME280;45870;42.528;26.740;2023-01-26T00:45:20;100542.44;;;8.14;48.04
60019;BME280;45870;42.528;26.740;2023-01-26T00:47:45;100519.63;;;8.79;45.77
60019;BME280;45870;42.528;26.740;2023-01-26T00:50:12;100488.19;;;9.19;44.31
60019;BME280;45870;42.528;26.740;2023-01-26T00:52:38;100490.13;;;10.41;42.00
60019;BME280;45870;42.528;26.740;2023-01-26T00:55:04;100560.03;;;10.63;42.28
60019;BME280;45870;42.528;26.740;2023-01-26T00:57:30;100500.25;;;10.59;41.60
60019;BME280;45870;42.528;26.740;2023-01-26T00:59:56;100556.00;;;10.34;42.57
60019;BME280;45870;42.528;26.740;2023-01-26T01:02:22;100539.38;;;10.37;41.81
60019;BME280;45870;42.528;26.740;2023-01-26T01:04:48;100532.13;;;11.20;40.76
60019;BME280;45870;42.528;26.740;2023-01-26T01:07:14;100554.31;;;11.28;40.77
60019;BME280;45870;42.528;26.740;2023-01-26T01:09:40;100485.03;;;10.27;40.85
60019;BME280;45870;42.528;26.740;2023-01-26T01:12:06;100537.06;;;10.91;40.87
60019;BME280;45870;42.528;26.740;2023-01-26T01:14:31;100532.16;;;11.13;40.62
60019;BME280;45870;42.528;26.740;2023-01-26T01:16:57;100540.50;;;11.43;40.00
60019;BME280;45870;42.528;26.740;2023-01-26T01:19:23;100520.47;;;11.26;40.22
60019;BME280;45870;42.528;26.740;2023-01-26T01:21:49;100525.94;;;11.13;40.96
60019;BME280;45870;42.528;26.740;2023-01-26T01:24:14;100521.91;;;11.53;40.24
60019;BME280;45870;42.528;26.740;2023-01-26T01:26:40;100518.13;;;10.98;41.32
60019;BME280;45870;42.528;26.740;2023-01-26T01:29:11;100438.34;;;10.20;41.87
60019;BME280;45870;42.528;26.740;2023-01-26T01:31:38;100480.91;;;10.69;42.02
60019;BME280;45870;42.528;26.740;2023-01-26T01:34:03;100325.69;;;10.09;41.07
60019;BME280;45870;42.528;26.740;2023-01-26T01:36:29;100504.47;;;11.49;40.02
60019;BME280;45870;42.528;26.740;2023-01-26T01:38:55;100516.97;;;11.43;39.65
60019;BME280;45870;42.528;26.740;2023-01-26T01:41:22;100508.59;;;11.51;40.47
60019;BME280;45870;42.528;26.740;2023-01-26T01:43:49;100480.03;;;11.37;40.36
60019;BME280;45870;42.528;26.740;2023-01-26T01:49:05;100437.63;;;10.82;40.95
60019;BME280;45870;42.528;26.740;2023-01-26T01:51:43;100509.88;;;11.49;40.39
60019;BME280;45870;42.528;26.740;2023-01-26T01:54:14;100503.53;;;11.06;41.23
60019;BME280;45870;42.528;26.740;2023-01-26T01:56:46;100501.75;;;11.24;40.83
60019;BME280;45870;42.528;26.740;2023-01-26T01:59:13;100507.75;;;10.95;41.45
60019;BME280;45870;42.528;26.740;2023-01-26T02:01:39;100506.56;;;11.16;41.12
60019;BME280;45870;42.528;26.740;2023-01-26T02:04:06;100486.47;;;11.05;41.55
60019;BME280;45870;42.528;26.740;2023-01-26T02:06:41;100465.84;;;11.42;40.33
60019;BME280;45870;42.528;26.740;2023-01-26T02:09:10;100490.25;;;11.35;40.54
60019;BME280;45870;42.528;26.740;2023-01-26T02:11:57;100487.81;;;10.96;41.60
60019;BME280;45870;42.528;26.740;2023-01-26T02:14:24;100485.13;;;10.45;42.19
60019;BME280;45870;42.528;26.740;2023-01-26T02:16:51;100475.13;;;10.59;42.39
60019;BME280;45870;42.528;26.740;2023-01-26T02:19:47;100476.19;;;9.61;45.10
60019;BME280;45870;42.528;26.740;2023-01-26T02:27:48;100431.44;;;9.33;44.88
60019;BME280;45870;42.528;26.740;2023-01-26T02:30:14;100460.47;;;9.31;45.84
60019;BME280;45870;42.528;26.740;2023-01-26T02:32:40;100469.88;;;10.70;42.84
60019;BME280;45870;42.528;26.740;2023-01-26T02:35:06;100455.44;;;9.68;43.76
60019;BME280;45870;42.528;26.740;2023-01-26T02:37:32;100456.38;;;10.26;43.62
60019;BME280;45870;42.528;26.740;2023-01-26T02:40:12;100454.31;;;10.21;44.03
60019;BME280;45870;42.528;26.740;2023-01-26T02:42:40;100450.69;;;9.76;44.37
60019;BME280;45870;42.528;26.740;2023-01-26T02:45:11;100459.81;;;10.84;42.39
60019;BME280;45870;42.528;26.740;2023-01-26T02:47:38;100456.09;;;10.47;42.89
60019;BME280;45870;42.528;26.740;2023-01-26T02:50:06;100452.75;;;10.51;43.12
60019;BME280;45870;42.528;26.740;2023-01-26T02:52:32;100438.41;;;10.89;41.65
60019;BME280;45870;42.528;26.740;2023-01-26T02:54:58;100434.88;;;9.86;44.67
60019;BME280;45870;42.528;26.740;2023-01-26T02:57:43;100444.09;;;11.06;41.91
60019;BME280;45870;42.528;26.740;2023-01-26T03:00:14;100441.09;;;10.89;41.33
60019;BME280;45870;42.528;26.740;2023-01-26T03:02:41;100447.63;;;10.75;41.56
60019;BME280;45870;42.528;26.740;2023-01-26T03:05:07;100417.38;;;10.97;41.60
60019;BME280;45870;42.528;26.740;2023-01-26T03:07:33;100452.78;;;11.39;41.39
60019;BME280;45870;42.528;26.740;2023-01-26T03:09:59;100434.31;;;11.36;41.01
60019;BME280;45870;42.528;26.740;2023-01-26T03:12:25;100437.75;;;10.56;42.29
60019;BME280;45870;42.528;26.740;2023-01-26T03:14:52;100432.28;;;10.31;43.34
60019;BME280;45870;42.528;26.740;2023-01-26T03:17:36;100425.75;;;10.45;43.49
60019;BME280;45870;42.528;26.740;2023-01-26T03:20:03;100437.38;;;10.90;42.11
60019;BME280;45870;42.528;26.740;2023-01-26T03:22:48;100433.94;;;11.32;41.90
60019;BME280;45870;42.528;26.740;2023-01-26T03:25:32;100410.47;;;11.26;41.00
60019;BME280;45870;42.528;26.740;2023-01-26T03:28:16;100436.22;;;11.04;41.18
60019;BME280;45870;42.528;26.740;2023-01-26T03:30:48;100431.16;;;10.45;42.55
60019;BME280;45870;42.528;26.740;2023-01-26T03:33:15;100426.47;;;9.57;44.66
60019;BME280;45870;42.528;26.740;2023-01-26T03:35:41;100416.13;;;9.14;46.70
60019;BME280;45870;42.528;26.740;2023-01-26T03:38:07;100410.75;;;9.21;45.95
60019;BME280;45870;42.528;26.740;2023-01-26T03:40:33;100402.03;;;8.99;46.61
60019;BME280;45870;42.528;26.740;2023-01-26T03:43:17;100394.41;;;8.22;48.84
60019;BME280;45870;42.528;26.740;2023-01-26T03:46:02;100391.38;;;8.45;48.81
60019;BME280;45870;42.528;26.740;2023-01-26T03:48:46;100348.03;;;7.32;50.89
60019;BME280;45870;42.528;26.740;2023-01-26T03:51:30;100392.25;;;7.98;49.77
60019;BME280;45870;42.528;26.740;2023-01-26T03:54:14;100183.53;;;8.95;44.43
60019;BME280;45870;42.528;26.740;2023-01-26T03:56:59;100346.91;;;10.74;41.82
60019;BME280;45870;42.528;26.740;2023-01-26T03:59:25;100400.91;;;11.48;40.68
60019;BME280;45870;42.528;26.740;2023-01-26T04:02:12;100405.88;;;9.88;44.88
60019;BME280;45870;42.528;26.740;2023-01-26T04:04:56;100305.44;;;10.37;42.56
60019;BME280;45870;42.528;26.740;2023-01-26T04:07:41;100418.22;;;10.91;41.63
60019;BME280;45870;42.528;26.740;2023-01-26T04:10:26;100406.00;;;11.14;41.63
60019;BME280;45870;42.528;26.740;2023-01-26T04:12:51;100400.81;;;11.12;41.84
60019;BME280;45870;42.528;26.740;2023-01-26T04:15:35;100339.38;;;10.51;42.08
60019;BME280;45870;42.528;26.740;2023-01-26T04:18:20;100395.78;;;11.83;40.79
60019;BME280;45870;42.528;26.740;2023-01-26T04:21:04;100386.66;;;11.60;40.26
60019;BME280;45870;42.528;26.740;2023-01-26T04:23:49;100392.16;;;11.03;41.44
60019;BME280;45870;42.528;26.740;2023-01-26T04:26:17;100386.56;;;12.09;40.16
60019;BME280;45870;42.528;26.740;2023-01-26T04:28:42;100378.81;;;12.13;39.46
60019;BME280;45870;42.528;26.740;2023-01-26T04:31:08;100383.09;;;12.20;39.41
60019;BME280;45870;42.528;26.740;2023-01-26T04:33:34;100384.34;;;12.18;39.76
60019;BME280;45870;42.528;26.740;2023-01-26T04:36:05;100370.63;;;12.01;40.15
60019;BME280;45870;42.528;26.740;2023-01-26T04:38:31;100380.00;;;12.46;39.22
60019;BME280;45870;42.528;26.740;2023-01-26T04:40:58;100394.31;;;10.95;41.87
60019;BME280;45870;42.528;26.740;2023-01-26T04:43:23;100383.91;;;10.67;42.26
60019;BME280;45870;42.528;26.740;2023-01-26T04:45:58;100384.09;;;10.72;42.77
60019;BME280;45870;42.528;26.740;2023-01-26T04:48:25;100358.31;;;10.76;42.51
60019;BME280;45870;42.528;26.740;2023-01-26T04:50:56;100382.00;;;11.24;41.49
60019;BME280;45870;42.528;26.740;2023-01-26T04:53:23;100385.06;;;11.52;41.36
60019;BME280;45870;42.528;26.740;2023-01-26T04:55:49;100376.72;;;11.78;40.29
60019;BME280;45870;42.528;26.740;2023-01-26T04:58:14;100377.31;;;11.98;40.40
60019;BME280;45870;42.528;26.740;2023-01-26T05:00:40;100370.50;;;10.85;42.67
60019;BME280;45870;42.528;26.740;2023-01-26T05:03:06;100368.41;;;10.56;43.18
60019;BME280;45870;42.528;26.740;2023-01-26T05:05:35;100359.13;;;12.06;40.21
60019;BME280;45870;42.528;26.740;2023-01-26T05:08:02;100308.63;;;11.45;40.47
60019;BME280;45870;42.528;26.740;2023-01-26T05:10:29;100373.31;;;12.01;39.97
60019;BME280;45870;42.528;26.740;2023-01-26T05:12:54;100341.16;;;11.93;39.97
60019;BME280;45870;42.528;26.740;2023-01-26T05:15:20;100366.38;;;12.23;39.65
60019;BME280;45870;42.528;26.740;2023-01-26T05:17:46;100356.50;;;12.17;39.87
60019;BME280;45870;42.528;26.740;2023-01-26T05:20:12;100356.84;;;12.21;39.92
60019;BME280;45870;42.528;26.740;2023-01-26T05:22:38;100316.81;;;11.93;39.44
60019;BME280;45870;42.528;26.740;2023-01-26T05:25:05;100338.97;;;11.65;41.10
60019;BME280;45870;42.528;26.740;2023-01-26T05:27:30;100341.59;;;12.08;39.89
60019;BME280;45870;42.528;26.740;2023-01-26T05:29:56;100344.69;;;12.12;39.91
60019;BME280;45870;42.528;26.740;2023-01-26T05:32:26;100350.69;;;10.91;42.75
60019;BME280;45870;42.528;26.740;2023-01-26T05:34:52;100349.84;;;8.93;47.83
60019;BME280;45870;42.528;26.740;2023-01-26T05:37:18;100347.34;;;8.98;47.64
60019;BME280;45870;42.528;26.740;2023-01-26T05:39:44;100343.59;;;9.19;47.70
60019;BME280;45870;42.528;26.740;2023-01-26T05:42:11;100244.03;;;8.93;46.62
60019;BME280;45870;42.528;26.740;2023-01-26T05:44:38;100338.25;;;10.34;44.98
60019;BME280;45870;42.528;26.740;2023-01-26T05:47:04;100123.81;;;8.28;46.23
60019;BME280;45870;42.528;26.740;2023-01-26T05:49:30;100335.50;;;9.26;47.83
60019;BME280;45870;42.528;26.740;2023-01-26T05:51:57;100343.19;;;8.70;48.92
60019;BME280;45870;42.528;26.740;2023-01-26T05:54:23;100337.63;;;7.97;51.35
60019;BME280;45870;42.528;26.740;2023-01-26T05:56:49;100266.47;;;7.80;50.38
60019;BME280;45870;42.528;26.740;2023-01-26T05:59:15;100344.19;;;8.29;50.82
60019;BME280;45870;42.528;26.740;2023-01-26T06:01:41;100349.22;;;8.85;49.26
60019;BME280;45870;42.528;26.740;2023-01-26T06:04:07;100332.00;;;8.60;49.77
60019;BME280;45870;42.528;26.740;2023-01-26T06:06:32;100339.22;;;8.39;50.57
60019;BME280;45870;42.528;26.740;2023-01-26T06:08:58;100336.19;;;8.75;49.83
60019;BME280;45870;42.528;26.740;2023-01-26T06:11:24;100338.00;;;9.01;48.30
60019;BME280;45870;42.528;26.740;2023-01-26T06:13:50;100331.00;;;9.00;48.75
60019;BME280;45870;42.528;26.740;2023-01-26T06:16:16;100324.78;;;8.80;48.97
60019;BME280;45870;42.528;26.740;2023-01-26T06:18:41;100315.03;;;8.52;50.13
60019;BME280;45870;42.528;26.740;2023-01-26T06:21:07;100307.16;;;8.44;50.15
60019;BME280;45870;42.528;26.740;2023-01-26T06:23:33;100294.13;;;8.48;50.23
60019;BME280;45870;42.528;26.740;2023-01-26T06:25:59;100305.53;;;8.57;50.16
60019;BME280;45870;42.528;26.740;2023-01-26T06:28:27;100291.00;;;8.31;50.47
60019;BME280;45870;42.528;26.740;2023-01-26T06:31:05;100263.78;;;7.87;51.51
60019;BME280;45870;42.528;26.740;2023-01-26T06:33:32;100283.47;;;9.38;48.14
60019;BME280;45870;42.528;26.740;2023-01-26T06:36:07;100277.97;;;9.07;48.80
60019;BME280;45870;42.528;26.740;2023-01-26T06:38:34;100092.41;;;8.35;47.71
60019;BME280;45870;42.528;26.740;2023-01-26T06:41:02;100294.81;;;9.60;47.01
60019;BME280;45870;42.528;26.740;2023-01-26T06:43:29;100285.41;;;8.98;49.42
60019;BME280;45870;42.528;26.740;2023-01-26T06:45:56;100302.78;;;9.16;48.85
60019;BME280;45870;42.528;26.740;2023-01-26T06:48:26;100305.94;;;9.77;47.16
60019;BME280;45870;42.528;26.740;2023-01-26T06:50:52;100307.09;;;9.94;46.55
60019;BME280;45870;42.528;26.740;2023-01-26T06:53:32;100300.47;;;10.66;44.52
60019;BME280;45870;42.528;26.740;2023-01-26T06:55:59;100291.22;;;10.98;44.04
60019;BME280;45870;42.528;26.740;2023-01-26T06:58:24;100287.09;;;10.08;45.60
60019;BME280;45870;42.528;26.740;2023-01-26T07:00:51;100299.06;;;10.57;45.65
60019;BME280;45870;42.528;26.740;2023-01-26T07:03:17;100289.53;;;9.78;47.16
60019;BME280;45870;42.528;26.740;2023-01-26T07:05:42;100302.22;;;9.71;47.82
60019;BME280;45870;42.528;26.740;2023-01-26T07:08:08;100301.28;;;9.39;48.66
60019;BME280;45870;42.528;26.740;2023-01-26T07:10:35;100308.66;;;9.70;47.84
60019;BME280;45870;42.528;26.740;2023-01-26T07:13:03;100272.63;;;9.58;47.31
60019;BME280;45870;42.528;26.740;2023-01-26T07:15:29;100305.88;;;9.26;49.12
60019;BME280;45870;42.528;26.740;2023-01-26T07:17:56;100312.69;;;9.41;48.80
60019;BME280;45870;42.528;26.740;2023-01-26T07:20:22;100314.22;;;8.91;49.84
60019;BME280;45870;42.528;26.740;2023-01-26T07:22:48;100284.97;;;9.21;49.16
60019;BME280;45870;42.528;26.740;2023-01-26T07:25:15;100293.94;;;8.89;49.10
60019;BME280;45870;42.528;26.740;2023-01-26T07:27:40;100120.94;;;8.16;49.63
60019;BME280;45870;42.528;26.740;2023-01-26T07:30:07;100295.69;;;9.41;49.23
60019;BME280;45870;42.528;26.740;2023-01-26T07:32:32;100298.59;;;9.39;49.11
60019;BME280;45870;42.528;26.740;2023-01-26T07:34:58;100301.06;;;9.47;49.26
60019;BME280;45870;42.528;26.740;2023-01-26T07:37:27;100300.28;;;9.34;48.95
60019;BME280;45870;42.528;26.740;2023-01-26T07:39:53;100297.25;;;9.04;49.16
60019;BME280;45870;42.528;26.740;2023-01-26T07:42:19;100285.44;;;8.85;50.38
60019;BME280;45870;42.528;26.740;2023-01-26T07:44:45;100292.69;;;8.45;51.34
60019;BME280;45870;42.528;26.740;2023-01-26T07:47:11;100296.81;;;8.81;50.93
60019;BME280;45870;42.528;26.740;2023-01-26T07:49:36;100297.25;;;8.84;50.44
60019;BME280;45870;42.528;26.740;2023-01-26T07:52:02;100287.72;;;8.82;51.31
60019;BME280;45870;42.528;26.740;2023-01-26T07:54:29;100283.75;;;9.11;49.88
60019;BME280;45870;42.528;26.740;2023-01-26T07:56:56;100287.88;;;9.20;50.21
60019;BME280;45870;42.528;26.740;2023-01-26T07:59:21;100282.53;;;8.93;49.72
60019;BME280;45870;42.528;26.740;2023-01-26T08:01:49;100270.22;;;9.37;49.27
60019;BME280;45870;42.528;26.740;2023-01-26T08:04:15;100272.81;;;9.63;49.47
60019;BME280;45870;42.528;26.740;2023-01-26T08:06:41;100212.00;;;9.29;48.90
60019;BME280;45870;42.528;26.740;2023-01-26T08:09:07;100269.50;;;10.06;47.60
60019;BME280;45870;42.528;26.740;2023-01-26T08:11:33;100267.03;;;10.85;45.74
60019;BME280;45870;42.528;26.740;2023-01-26T08:14:00;100259.09;;;10.16;47.39
60019;BME280;45870;42.528;26.740;2023-01-26T08:16:26;100260.66;;;9.85;48.06
60019;BME280;45870;42.528;26.740;2023-01-26T08:18:52;100224.78;;;9.91;47.41
60019;BME280;45870;42.528;26.740;2023-01-26T08:21:18;100251.69;;;9.98;48.32
60019;BME280;45870;42.528;26.740;2023-01-26T08:23:48;100190.63;;;10.17;46.27
60019;BME280;45870;42.528;26.740;2023-01-26T08:26:14;100240.44;;;10.08;47.49
60019;BME280;45870;42.528;26.740;2023-01-26T08:28:43;100235.22;;;10.13;46.97
60019;BME280;45870;42.528;26.740;2023-01-26T08:31:11;100226.66;;;9.40;48.53
60019;BME280;45870;42.528;26.740;2023-01-26T08:33:40;100227.97;;;10.87;46.09
60019;BME280;45870;42.528;26.740;2023-01-26T08:36:09;100227.25;;;10.24;47.25
60019;BME280;45870;42.528;26.740;2023-01-26T08:38:35;100213.72;;;10.56;46.13
60019;BME280;45870;42.528;26.740;2023-01-26T08:41:02;100221.31;;;10.16;46.92
60019;BME280;45870;42.528;26.740;2023-01-26T08:43:28;100195.44;;;10.33;47.77
60019;BME280;45870;42.528;26.740;2023-01-26T08:45:54;100117.53;;;9.62;47.53
60019;BME280;45870;42.528;26.740;2023-01-26T08:48:21;100195.19;;;10.16;48.57
60019;BME280;45870;42.528;26.740;2023-01-26T08:50:47;100028.16;;;9.90;47.51
60019;BME280;45870;42.528;26.740;2023-01-26T08:53:12;100162.81;;;10.59;46.34
60019;BME280;45870;42.528;26.740;2023-01-26T08:55:38;100178.59;;;10.62;47.28
60019;BME280;45870;42.528;26.740;2023-01-26T08:58:04;100090.75;;;10.23;46.70
60019;BME280;45870;42.528;26.740;2023-01-26T09:00:30;100178.03;;;10.53;47.56
60019;BME280;45870;42.528;26.740;2023-01-26T09:03:02;100186.78;;;11.46;46.22
60019;BME280;45870;42.528;26.740;2023-01-26T09:05:34;100196.69;;;10.80;47.20
60019;BME280;45870;42.528;26.740;2023-01-26T09:08:01;100195.69;;;11.47;45.13
60019;BME280;45870;42.528;26.740;2023-01-26T09:10:27;100208.72;;;11.68;45.14
60019;BME280;45870;42.528;26.740;2023-01-26T09:12:53;100200.56;;;12.16;43.71
60019;BME280;45870;42.528;26.740;2023-01-26T09:15:21;100191.28;;;11.16;45.90
60019;BME280;45870;42.528;26.740;2023-01-26T09:17:50;100193.28;;;12.28;43.60
60019;BME280;45870;42.528;26.740;2023-01-26T09:20:16;100198.97;;;12.50;43.23
60019;BME280;45870;42.528;26.740;2023-01-26T09:22:42;100195.38;;;11.73;44.51
60019;BME280;45870;42.528;26.740;2023-01-26T09:25:09;100196.75;;;11.94;44.41
60019;BME280;45870;42.528;26.740;2023-01-26T09:27:35;100191.69;;;12.62;42.83
60019;BME280;45870;42.528;26.740;2023-01-26T09:30:02;100206.53;;;14.14;39.41
60019;BME280;45870;42.528;26.740;2023-01-26T09:32:28;100196.16;;;12.80;41.41
60019;BME280;45870;42.528;26.740;2023-01-26T09:34:54;100193.44;;;13.15;41.18
60019;BME280;45870;42.528;26.740;2023-01-26T09:37:20;100179.88;;;11.80;43.81
60019;BME280;45870;42.528;26.740;2023-01-26T09:39:46;100185.91;;;11.64;44.89
60019;BME280;45870;42.528;26.740;2023-01-26T09:50:50;100089.38;;;11.23;45.74
60019;BME280;45870;42.528;26.740;2023-01-26T09:53:26;100139.59;;;11.13;47.13
60019;BME280;45870;42.528;26.740;2023-01-26T09:55:53;100131.69;;;11.59;46.17
60019;BME280;45870;42.528;26.740;2023-01-26T09:58:33;100129.50;;;11.68;45.48
60019;BME280;45870;42.528;26.740;2023-01-26T10:01:03;100116.22;;;12.19;44.50
60019;BME280;45870;42.528;26.740;2023-01-26T10:03:40;100120.81;;;12.53;43.55
60019;BME280;45870;42.528;26.740;2023-01-26T10:06:22;100118.34;;;12.29;43.75
60019;BME280;45870;42.528;26.740;2023-01-26T10:08:51;100119.25;;;11.99;44.91
60019;BME280;45870;42.528;26.740;2023-01-26T10:11:25;100112.66;;;11.95;45.06
60019;BME280;45870;42.528;26.740;2023-01-26T10:14:01;100110.31;;;12.45;43.90
60019;BME280;45870;42.528;26.740;2023-01-26T10:16:32;100124.91;;;12.21;44.77
60019;BME280;45870;42.528;26.740;2023-01-26T10:19:11;100105.31;;;13.12;43.03
60019;BME280;45870;42.528;26.740;2023-01-26T10:21:43;100084.28;;;12.68;42.81
60019;BME280;45870;42.528;26.740;2023-01-26T10:24:11;99907.53;;;11.34;43.19
60019;BME280;45870;42.528;26.740;2023-01-26T10:26:39;100092.19;;;12.46;44.88
60019;BME280;45870;42.528;26.740;2023-01-26T10:29:05;100049.88;;;12.17;44.50
60019;BME280;45870;42.528;26.740;2023-01-26T10:31:32;100073.72;;;11.85;46.09
60019;BME280;45870;42.528;26.740;2023-01-26T10:34:00;100022.44;;;11.78;45.52
60019;BME280;45870;42.528;26.740;2023-01-26T10:36:31;100079.72;;;12.22;45.81
60019;BME280;45870;42.528;26.740;2023-01-26T10:39:05;100015.16;;;12.14;45.00
60019;BME280;45870;42.528;26.740;2023-01-26T10:41:32;99999.44;;;12.50;44.44
60019;BME280;45870;42.528;26.740;2023-01-26T10:43:59;100035.47;;;12.51;45.60
60019;BME280;45870;42.528;26.740;2023-01-26T10:46:33;100007.69;;;12.56;45.11
60019;BME280;45870;42.528;26.740;2023-01-26T10:51:35;99936.63;;;11.85;46.06
60019;BME280;45870;42.528;26.740;2023-01-26T10:54:13;100011.59;;;13.16;44.59
60019;BME280;45870;42.528;26.740;2023-01-26T10:56:45;99986.88;;;11.51;48.50
60019;BME280;45870;42.528;26.740;2023-01-26T10:59:19;99970.22;;;12.52;46.23
60019;BME280;45870;42.528;26.740;2023-01-26T11:04:36;99969.97;;;11.79;47.20
60019;BME280;45870;42.528;26.740;2023-01-26T11:07:25;99972.56;;;11.86;48.61
60019;BME280;45870;42.528;26.740;2023-01-26T11:09:52;99972.09;;;12.24;47.67
60019;BME280;45870;42.528;26.740;2023-01-26T11:12:20;99958.81;;;11.64;50.66
60019;BME280;45870;42.528;26.740;2023-01-26T11:17:36;99908.53;;;10.39;54.46
60019;BME280;45870;42.528;26.740;2023-01-26T11:32:16;99848.97;;;10.40;57.51
60019;BME280;45870;42.528;26.740;2023-01-26T11:37:45;99824.44;;;10.83;58.41
60019;BME280;45870;42.528;26.740;2023-01-26T11:40:23;99834.34;;;10.60;58.89
60019;BME280;45870;42.528;26.740;2023-01-26T11:58:54;99831.34;;;11.84;55.34
60019;BME280;45870;42.528;26.740;2023-01-26T12:01:29;99831.59;;;11.47;55.37
60019;BME280;45870;42.528;26.740;2023-01-26T12:03:56;99823.19;;;10.97;57.03
60019;BME280;45870;42.528;26.740;2023-01-26T12:09:29;99843.34;;;11.88;55.05
60019;BME280;45870;42.528;26.740;2023-01-26T12:15:00;99839.69;;;11.82;55.36
60019;BME280;45870;42.528;26.740;2023-01-26T12:17:35;99833.75;;;11.22;57.09
60019;BME280;45870;42.528;26.740;2023-01-26T12:20:23;99831.53;;;10.55;59.13
60019;BME280;45870;42.528;26.740;2023-01-26T12:22:59;99827.34;;;10.70;58.92
60019;BME280;45870;42.528;26.740;2023-01-26T12:25:39;99839.00;;;11.06;58.54
60019;BME280;45870;42.528;26.740;2023-01-26T12:28:13;99827.03;;;11.48;57.38
60019;BME280;45870;42.528;26.740;2023-01-26T12:31:08;99822.25;;;11.15;58.00
60019;BME280;45870;42.528;26.740;2023-01-26T12:33:37;99838.56;;;11.32;58.15
60019;BME280;45870;42.528;26.740;2023-01-26T12:39:19;99806.97;;;10.15;61.24
60019;BME280;45870;42.528;26.740;2023-01-26T12:44:32;99819.97;;;11.47;57.31
60019;BME280;45870;42.528;26.740;2023-01-26T12:47:07;99812.94;;;11.34;58.28
60019;BME280;45870;42.528;26.740;2023-01-26T12:58:01;99735.84;;;10.27;60.32
60019;BME280;45870;42.528;26.740;2023-01-26T13:00:31;99790.91;;;10.49;60.69
60019;BME280;45870;42.528;26.740;2023-01-26T13:03:04;99800.63;;;11.03;59.22
60019;BME280;45870;42.528;26.740;2023-01-26T13:05:53;99801.44;;;11.16;59.38
60019;BME280;45870;42.528;26.740;2023-01-26T13:10:55;99784.81;;;10.54;60.33
60019;BME280;45870;42.528;26.740;2023-01-26T13:13:28;99766.56;;;11.26;58.57
60019;BME280;45870;42.528;26.740;2023-01-26T13:18:53;99762.84;;;10.39;61.17
60019;BME280;45870;42.528;26.740;2023-01-26T13:21:26;99770.25;;;10.43;62.27
60019;BME280;45870;42.528;26.740;2023-01-26T13:23:52;99741.31;;;9.91;62.55
60019;BME280;45870;42.528;26.740;2023-01-26T13:26:23;99698.97;;;9.80;62.33
60019;BME280;45870;42.528;26.740;2023-01-26T13:29:50;99771.72;;;10.92;60.44
60019;BME280;45870;42.528;26.740;2023-01-26T13:34:55;99764.59;;;10.45;61.99
60019;BME280;45870;42.528;26.740;2023-01-26T13:37:33;99774.56;;;10.97;60.30
60019;BME280;45870;42.528;26.740;2023-01-26T13:40:17;99763.69;;;11.44;58.96
60019;BME280;45870;42.528;26.740;2023-01-26T13:43:06;99772.97;;;11.71;57.99
60019;BME280;45870;42.528;26.740;2023-01-26T13:45:44;99776.19;;;11.10;59.89
60019;BME280;45870;42.528;26.740;2023-01-26T13:48:25;99722.31;;;10.16;61.45
60019;BME280;45870;42.528;26.740;2023-01-26T13:50:58;99776.63;;;10.61;61.20
60019;BME280;45870;42.528;26.740;2023-01-26T13:55:59;99764.91;;;11.01;59.83
60019;BME280;45870;42.528;26.740;2023-01-26T13:58:26;99780.38;;;12.04;56.62
60019;BME280;45870;42.528;26.740;2023-01-26T14:01:05;99792.13;;;10.77;61.32
60019;BME280;45870;42.528;26.740;2023-01-26T14:03:32;99767.59;;;10.67;60.94
60019;BME280;45870;42.528;26.740;2023-01-26T14:06:00;99800.25;;;11.23;59.93
60019;BME280;45870;42.528;26.740;2023-01-26T14:08:27;99792.88;;;11.19;60.23
60019;BME280;45870;42.528;26.740;2023-01-26T14:10:54;99787.81;;;10.76;61.87
60019;BME280;45870;42.528;26.740;2023-01-26T14:13:32;99763.38;;;10.71;61.72
60019;BME280;45870;42.528;26.740;2023-01-26T14:16:02;99777.00;;;10.99;60.87
60019;BME280;45870;42.528;26.740;2023-01-26T14:18:28;99765.25;;;10.70;62.32
60019;BME280;45870;42.528;26.740;2023-01-26T14:23:28;99676.25;;;10.98;60.27
60019;BME280;45870;42.528;26.740;2023-01-26T14:26:04;99738.38;;;11.22;61.14
60019;BME280;45870;42.528;26.740;2023-01-26T14:28:34;99733.81;;;10.76;62.27